sensor_id;sensor_type;location;lat;lon;timestamp;temperature;humidity
4787;DHT22;62338;48.832;9.422;2022-08-02T04:37:26;15.60;99.90
4787;DHT22;62338;48.832;9.422;2022-08-02T04:39:27;15.70;99.90
4787;DHT22;62338;48.832;9.422;2022-08-02T04:41:37;15.70;99.90
4787;DHT22;62338;48.832;9.422;2022-08-02T04:43:44;15.70;99.90
4787;DHT22;62338;48.832;9.422;2022-08-02T04:45:49;15.80;99.90
4787;DHT22;62338;48.832;9.422;2022-08-02T04:47:51;15.90;99.90
4787;DHT22;62338;48.832;9.422;2022-08-02T04:50:04;15.90;99.90
4787;DHT22;62338;48.832;9.422;2022-08-02T04:52:06;16.00;99.90
4787;DHT22;62338;48.832;9.422;2022-08-02T04:54:09;16.00;99.90
4787;DHT22;62338;48.832;9.422;2022-08-02T04:56:11;16.10;99.90
4787;DHT22;62338;48.832;9.422;2022-08-02T04:58:13;16.10;99.90
4787;DHT22;62338;48.832;9.422;2022-08-02T05:00:35;16.20;99.90
4787;DHT22;62338;48.832;9.422;2022-08-02T05:02:37;16.20;99.90
4787;DHT22;62338;48.832;9.422;2022-08-02T05:04:39;16.20;99.90
4787;DHT22;62338;48.832;9.422;2022-08-02T05:06:40;16.20;99.90
4787;DHT22;62338;48.832;9.422;2022-08-02T05:08:42;16.30;99.90
4787;DHT22;62338;48.832;9.422;2022-08-02T05:10:44;16.40;99.90
4787;DHT22;62338;48.832;9.422;2022-08-02T05:12:46;16.50;99.90
4787;DHT22;62338;48.832;9.422;2022-08-02T05:14:48;16.50;99.90
4787;DHT22;62338;48.832;9.422;2022-08-02T05:16:49;16.60;99.90
4787;DHT22;62338;48.832;9.422;2022-08-02T05:18:51;16.70;99.90
4787;DHT22;62338;48.832;9.422;2022-08-02T05:20:53;16.80;99.90
4787;DHT22;62338;48.832;9.422;2022-08-02T05:22:58;16.90;99.90
4787;DHT22;62338;48.832;9.422;2022-08-02T05:25:00;17.10;99.90
4787;DHT22;62338;48.832;9.422;2022-08-02T05:27:02;17.10;99.90
4787;DHT22;62338;48.832;9.422;2022-08-02T05:29:22;17.20;99.90
4787;DHT22;62338;48.832;9.422;2022-08-02T05:31:23;17.30;99.90
4787;DHT22;62338;48.832;9.422;2022-08-02T05:33:25;17.30;99.90
4787;DHT22;62338;48.832;9.422;2022-08-02T05:35:27;17.40;99.90
4787;DHT22;62338;48.832;9.422;2022-08-02T05:37:29;17.60;99.90
4787;DHT22;62338;48.832;9.422;2022-08-02T05:39:35;17.70;99.90
4787;DHT22;62338;48.832;9.422;2022-08-02T05:41:55;17.70;99.90
4787;DHT22;62338;48.832;9.422;2022-08-02T05:43:57;17.80;99.90
4787;DHT22;62338;48.832;9.422;2022-08-02T05:45:59;17.80;99.90
4787;DHT22;62338;48.832;9.422;2022-08-02T05:48:01;17.90;99.90
4787;DHT22;62338;48.832;9.422;2022-08-02T05:50:08;17.90;99.90
4787;DHT22;62338;48.832;9.422;2022-08-02T05:54:22;17.90;99.90
4787;DHT22;62338;48.832;9.422;2022-08-02T05:56:47;18.00;99.90
4787;DHT22;62338;48.832;9.422;2022-08-02T06:01:36;18.00;99.90
4787;DHT22;62338;48.832;9.422;2022-08-02T06:03:51;18.10;99.90
4787;DHT22;62338;48.832;9.422;2022-08-02T06:06:09;18.10;99.90
4787;DHT22;62338;48.832;9.422;2022-08-02T06:08:12;18.20;99.90
4787;DHT22;62338;48.832;9.422;2022-08-02T06:10:18;18.30;99.90
4787;DHT22;62338;48.832;9.422;2022-08-02T06:12:21;18.30;99.90
4787;DHT22;62338;48.832;9.422;2022-08-02T06:14:26;18.40;99.90
4787;DHT22;62338;48.832;9.422;2022-08-02T06:16:31;18.40;99.90
4787;DHT22;62338;48.832;9.422;2022-08-02T06:18:43;18.40;99.90
4787;DHT22;62338;48.832;9.422;2022-08-02T06:20:48;18.50;99.90
4787;DHT22;62338;48.832;9.422;2022-08-02T06:22:51;18.60;99.90
4787;DHT22;62338;48.832;9.422;2022-08-02T06:24:53;18.70;99.90
4787;DHT22;62338;48.832;9.422;2022-08-02T06:26:57;18.70;99.90
4787;DHT22;62338;48.832;9.422;2022-08-02T06:29:00;18.80;99.90
4787;DHT22;62338;48.832;9.422;2022-08-02T06:31:02;18.80;99.90
4787;DHT22;62338;48.832;9.422;2022-08-02T06:33:04;18.90;99.90
4787;DHT22;62338;48.832;9.422;2022-08-02T06:35:06;18.90;99.90
4787;DHT22;62338;48.832;9.422;2022-08-02T06:37:13;19.00;99.90
4787;DHT22;62338;48.832;9.422;2022-08-02T06:39:29;19.00;99.90
4787;DHT22;62338;48.832;9.422;2022-08-02T06:41:40;19.00;99.90
4787;DHT22;62338;48.832;9.422;2022-08-02T06:44:02;19.00;99.90
4787;DHT22;62338;48.832;9.422;2022-08-02T06:46:24;19.00;99.90
4787;DHT22;62338;48.832;9.422;2022-08-02T06:48:46;19.20;99.90
4787;DHT22;62338;48.832;9.422;2022-08-02T06:50:48;19.30;99.90
4787;DHT22;62338;48.832;9.422;2022-08-02T06:52:50;19.40;99.90
4787;DHT22;62338;48.832;9.422;2022-08-02T06:54:52;19.40;99.90
4787;DHT22;62338;48.832;9.422;2022-08-02T06:56:54;19.50;99.90
4787;DHT22;62338;48.832;9.422;2022-08-02T06:58:55;19.60;99.90
4787;DHT22;62338;48.832;9.422;2022-08-02T07:00:57;19.70;99.90
4787;DHT22;62338;48.832;9.422;2022-08-02T07:02:59;19.70;99.90
4787;DHT22;62338;48.832;9.422;2022-08-02T07:05:02;19.90;99.90
4787;DHT22;62338;48.832;9.422;2022-08-02T07:07:04;20.30;99.90
4787;DHT22;62338;48.832;9.422;2022-08-02T07:09:06;21.10;78.90
4787;DHT22;62338;48.832;9.422;2022-08-02T07:11:23;22.20;54.10
4787;DHT22;62338;48.832;9.422;2022-08-02T07:13:25;23.50;1.00
4787;DHT22;62338;48.832;9.422;2022-08-02T07:15:27;24.40;1.00
4787;DHT22;62338;48.832;9.422;2022-08-02T07:17:29;25.10;1.00
4787;DHT22;62338;48.832;9.422;2022-08-02T07:19:30;25.90;99.90
4787;DHT22;62338;48.832;9.422;2022-08-02T07:21:38;26.50;99.90
4787;DHT22;62338;48.832;9.422;2022-08-02T07:24:00;27.00;99.90
4787;DHT22;62338;48.832;9.422;2022-08-02T07:26:02;27.60;1.00
4787;DHT22;62338;48.832;9.422;2022-08-02T07:28:08;28.10;1.00
4787;DHT22;62338;48.832;9.422;2022-08-02T07:30:24;28.30;7.90
4787;DHT22;62338;48.832;9.422;2022-08-02T07:32:28;28.70;1.00
4787;DHT22;62338;48.832;9.422;2022-08-02T07:34:30;28.80;99.90
4787;DHT22;62338;48.832;9.422;2022-08-02T07:36:31;28.80;1.00
4787;DHT22;62338;48.832;9.422;2022-08-02T07:38:33;28.70;1.00
4787;DHT22;62338;48.832;9.422;2022-08-02T07:40:38;29.00;99.90
4787;DHT22;62338;48.832;9.422;2022-08-02T07:42:43;29.40;1.00
4787;DHT22;62338;48.832;9.422;2022-08-02T07:44:46;30.10;1.00
4787;DHT22;62338;48.832;9.422;2022-08-02T07:46:49;30.00;1.00
4787;DHT22;62338;48.832;9.422;2022-08-02T07:48:51;30.10;99.90
4787;DHT22;62338;48.832;9.422;2022-08-02T07:50:56;29.90;1.00
4787;DHT22;62338;48.832;9.422;2022-08-02T07:52:57;29.70;1.00
4787;DHT22;62338;48.832;9.422;2022-08-02T07:54:59;30.00;99.90
4787;DHT22;62338;48.832;9.422;2022-08-02T07:57:01;30.00;99.90
4787;DHT22;62338;48.832;9.422;2022-08-02T07:59:03;30.60;1.00
4787;DHT22;62338;48.832;9.422;2022-08-02T08:01:05;30.70;99.90
4787;DHT22;62338;48.832;9.422;2022-08-02T08:03:07;30.70;99.90
4787;DHT22;62338;48.832;9.422;2022-08-02T08:05:09;30.40;1.00
4787;DHT22;62338;48.832;9.422;2022-08-02T08:07:12;30.60;99.90
4787;DHT22;62338;48.832;9.422;2022-08-02T08:09:14;30.60;99.90
4787;DHT22;62338;48.832;9.422;2022-08-02T08:11:15;30.80;99.90
4787;DHT22;62338;48.832;9.422;2022-08-02T08:13:17;30.90;99.90
4787;DHT22;62338;48.832;9.422;2022-08-02T08:15:19;31.10;99.90
4787;DHT22;62338;48.832;9.422;2022-08-02T08:17:21;31.00;99.90
4787;DHT22;62338;48.832;9.422;2022-08-02T08:19:23;31.60;99.90
4787;DHT22;62338;48.832;9.422;2022-08-02T08:21:45;31.20;99.90
4787;DHT22;62338;48.832;9.422;2022-08-02T08:23:47;31.90;99.90
4787;DHT22;62338;48.832;9.422;2022-08-02T08:25:49;31.80;99.90
4787;DHT22;62338;48.832;9.422;2022-08-02T08:27:51;31.60;99.90
4787;DHT22;62338;48.832;9.422;2022-08-02T08:29:53;31.70;99.90
4787;DHT22;62338;48.832;9.422;2022-08-02T08:31:55;32.20;99.90
4787;DHT22;62338;48.832;9.422;2022-08-02T08:34:03;32.40;94.10
4787;DHT22;62338;48.832;9.422;2022-08-02T08:36:05;32.30;96.20
4787;DHT22;62338;48.832;9.422;2022-08-02T08:38:07;32.10;99.90
4787;DHT22;62338;48.832;9.422;2022-08-02T08:40:09;32.40;99.90
4787;DHT22;62338;48.832;9.422;2022-08-02T08:42:11;32.20;99.90
4787;DHT22;62338;48.832;9.422;2022-08-02T08:44:14;32.60;99.90
4787;DHT22;62338;48.832;9.422;2022-08-02T08:46:31;33.20;97.00
4787;DHT22;62338;48.832;9.422;2022-08-02T08:48:42;32.90;16.80
4787;DHT22;62338;48.832;9.422;2022-08-02T08:51:10;33.10;26.20
4787;DHT22;62338;48.832;9.422;2022-08-02T08:53:14;32.80;14.30
4787;DHT22;62338;48.832;9.422;2022-08-02T08:55:16;32.70;1.00
4787;DHT22;62338;48.832;9.422;2022-08-02T08:57:19;32.70;1.00
4787;DHT22;62338;48.832;9.422;2022-08-02T08:59:21;32.50;5.20
4787;DHT22;62338;48.832;9.422;2022-08-02T09:01:23;32.20;77.90
4787;DHT22;62338;48.832;9.422;2022-08-02T09:03:46;32.30;1.00
4787;DHT22;62338;48.832;9.422;2022-08-02T09:05:47;32.00;1.00
4787;DHT22;62338;48.832;9.422;2022-08-02T09:07:51;32.30;20.90
4787;DHT22;62338;48.832;9.422;2022-08-02T09:09:53;33.00;1.00
4787;DHT22;62338;48.832;9.422;2022-08-02T09:12:15;32.80;1.00
4787;DHT22;62338;48.832;9.422;2022-08-02T09:14:27;32.00;1.00
4787;DHT22;62338;48.832;9.422;2022-08-02T09:16:35;32.00;55.30
4787;DHT22;62338;48.832;9.422;2022-08-02T09:18:38;32.70;1.00
4787;DHT22;62338;48.832;9.422;2022-08-02T09:20:52;32.60;1.00
4787;DHT22;62338;48.832;9.422;2022-08-02T09:23:08;33.10;1.00
4787;DHT22;62338;48.832;9.422;2022-08-02T09:25:14;33.10;1.00
4787;DHT22;62338;48.832;9.422;2022-08-02T09:27:18;33.40;1.00
4787;DHT22;62338;48.832;9.422;2022-08-02T09:29:23;33.60;1.00
4787;DHT22;62338;48.832;9.422;2022-08-02T09:31:26;33.90;1.00
4787;DHT22;62338;48.832;9.422;2022-08-02T09:33:28;33.80;1.00
4787;DHT22;62338;48.832;9.422;2022-08-02T09:35:37;33.80;1.00
4787;DHT22;62338;48.832;9.422;2022-08-02T09:38:10;33.20;1.00
4787;DHT22;62338;48.832;9.422;2022-08-02T09:40:12;33.50;1.00
4787;DHT22;62338;48.832;9.422;2022-08-02T09:42:14;33.50;1.00
4787;DHT22;62338;48.832;9.422;2022-08-02T09:44:16;33.20;1.00
4787;DHT22;62338;48.832;9.422;2022-08-02T09:46:24;33.20;1.00
4787;DHT22;62338;48.832;9.422;2022-08-02T09:48:26;33.80;1.00
4787;DHT22;62338;48.832;9.422;2022-08-02T09:50:28;33.70;1.00
4787;DHT22;62338;48.832;9.422;2022-08-02T09:52:31;34.10;1.00
4787;DHT22;62338;48.832;9.422;2022-08-02T09:54:44;34.50;1.00
4787;DHT22;62338;48.832;9.422;2022-08-02T09:56:48;34.80;1.00
4787;DHT22;62338;48.832;9.422;2022-08-02T09:58:51;35.00;1.00
4787;DHT22;62338;48.832;9.422;2022-08-02T10:00:55;35.30;1.00
4787;DHT22;62338;48.832;9.422;2022-08-02T10:03:10;35.20;1.00
4787;DHT22;62338;48.832;9.422;2022-08-02T10:05:28;35.00;1.00
4787;DHT22;62338;48.832;9.422;2022-08-02T10:07:36;34.50;1.00
4787;DHT22;62338;48.832;9.422;2022-08-02T10:09:38;33.20;1.00
4787;DHT22;62338;48.832;9.422;2022-08-02T10:11:48;31.90;1.00
4787;DHT22;62338;48.832;9.422;2022-08-02T10:13:50;31.20;1.00
4787;DHT22;62338;48.832;9.422;2022-08-02T10:15:54;30.20;1.00
4787;DHT22;62338;48.832;9.422;2022-08-02T10:17:57;28.80;99.90
4787;DHT22;62338;48.832;9.422;2022-08-02T10:19:59;28.30;99.90
4787;DHT22;62338;48.832;9.422;2022-08-02T10:22:11;27.90;1.00
4787;DHT22;62338;48.832;9.422;2022-08-02T10:24:15;27.60;1.00
4787;DHT22;62338;48.832;9.422;2022-08-02T10:26:19;27.50;99.90
4787;DHT22;62338;48.832;9.422;2022-08-02T10:28:26;27.60;1.00
4787;DHT22;62338;48.832;9.422;2022-08-02T10:30:35;27.90;1.00
4787;DHT22;62338;48.832;9.422;2022-08-02T10:32:42;27.90;1.00
4787;DHT22;62338;48.832;9.422;2022-08-02T10:34:51;27.40;1.00
4787;DHT22;62338;48.832;9.422;2022-08-02T10:36:54;27.30;99.90
4787;DHT22;62338;48.832;9.422;2022-08-02T10:38:56;28.50;99.90
4787;DHT22;62338;48.832;9.422;2022-08-02T10:40:59;29.60;1.00
4787;DHT22;62338;48.832;9.422;2022-08-02T10:43:01;29.60;99.90
4787;DHT22;62338;48.832;9.422;2022-08-02T10:45:10;29.60;99.90
4787;DHT22;62338;48.832;9.422;2022-08-02T10:49:17;28.30;99.90
4787;DHT22;62338;48.832;9.422;2022-08-02T10:54:08;28.00;99.90
4787;DHT22;62338;48.832;9.422;2022-08-02T10:56:10;28.90;1.00
4787;DHT22;62338;48.832;9.422;2022-08-02T10:58:19;29.00;1.00
4787;DHT22;62338;48.832;9.422;2022-08-02T11:00:27;29.70;1.00
4787;DHT22;62338;48.832;9.422;2022-08-02T11:02:41;31.50;99.90
4787;DHT22;62338;48.832;9.422;2022-08-02T11:07:12;33.10;25.00
4787;DHT22;62338;48.832;9.422;2022-08-02T11:09:28;32.30;1.00
4787;DHT22;62338;48.832;9.422;2022-08-02T11:14:02;29.80;93.90
4787;DHT22;62338;48.832;9.422;2022-08-02T11:16:04;29.20;99.90
4787;DHT22;62338;48.832;9.422;2022-08-02T11:18:12;29.10;99.90
4787;DHT22;62338;48.832;9.422;2022-08-02T11:20:15;29.80;99.90
4787;DHT22;62338;48.832;9.422;2022-08-02T11:22:17;31.00;99.90
4787;DHT22;62338;48.832;9.422;2022-08-02T11:24:34;31.90;99.90
4787;DHT22;62338;48.832;9.422;2022-08-02T11:28:38;31.90;1.00
4787;DHT22;62338;48.832;9.422;2022-08-02T11:30:40;31.40;1.00
4787;DHT22;62338;48.832;9.422;2022-08-02T11:32:43;31.00;30.90
4787;DHT22;62338;48.832;9.422;2022-08-02T11:34:46;29.70;58.80
4787;DHT22;62338;48.832;9.422;2022-08-02T11:36:50;28.90;99.90
4787;DHT22;62338;48.832;9.422;2022-08-02T11:39:11;28.30;99.90
4787;DHT22;62338;48.832;9.422;2022-08-02T11:41:20;28.00;99.90
4787;DHT22;62338;48.832;9.422;2022-08-02T11:43:42;27.90;1.00
4787;DHT22;62338;48.832;9.422;2022-08-02T11:45:45;27.80;1.00
4787;DHT22;62338;48.832;9.422;2022-08-02T11:47:52;28.20;99.90
4787;DHT22;62338;48.832;9.422;2022-08-02T11:50:05;29.40;1.00
4787;DHT22;62338;48.832;9.422;2022-08-02T11:52:08;30.80;99.90
4787;DHT22;62338;48.832;9.422;2022-08-02T11:54:11;31.20;99.90
4787;DHT22;62338;48.832;9.422;2022-08-02T11:56:14;31.10;78.80
4787;DHT22;62338;48.832;9.422;2022-08-02T11:58:25;30.90;70.70
4787;DHT22;62338;48.832;9.422;2022-08-02T12:00:27;30.30;24.20
4787;DHT22;62338;48.832;9.422;2022-08-02T12:02:31;29.60;25.70
4787;DHT22;62338;48.832;9.422;2022-08-02T12:04:35;29.70;99.90
4787;DHT22;62338;48.832;9.422;2022-08-02T12:06:37;29.90;86.60
4787;DHT22;62338;48.832;9.422;2022-08-02T12:08:38;30.30;47.70
4787;DHT22;62338;48.832;9.422;2022-08-02T12:10:50;30.80;1.00
4787;DHT22;62338;48.832;9.422;2022-08-02T12:12:54;30.70;1.00
4787;DHT22;62338;48.832;9.422;2022-08-02T12:14:56;30.40;1.00
4787;DHT22;62338;48.832;9.422;2022-08-02T12:16:58;30.30;1.00
4787;DHT22;62338;48.832;9.422;2022-08-02T12:19:20;31.10;10.60
4787;DHT22;62338;48.832;9.422;2022-08-02T12:21:26;32.30;1.00
4787;DHT22;62338;48.832;9.422;2022-08-02T12:23:29;33.20;1.00
4787;DHT22;62338;48.832;9.422;2022-08-02T12:25:30;33.10;1.00
4787;DHT22;62338;48.832;9.422;2022-08-02T12:27:37;32.70;1.00
4787;DHT22;62338;48.832;9.422;2022-08-02T12:29:41;32.40;1.00
4787;DHT22;62338;48.832;9.422;2022-08-02T12:32:00;32.40;1.00
4787;DHT22;62338;48.832;9.422;2022-08-02T12:34:10;32.30;1.00
4787;DHT22;62338;48.832;9.422;2022-08-02T12:36:23;31.60;1.00
4787;DHT22;62338;48.832;9.422;2022-08-02T12:38:24;31.10;1.00
4787;DHT22;62338;48.832;9.422;2022-08-02T12:40:30;31.20;1.00
4787;DHT22;62338;48.832;9.422;2022-08-02T12:42:47;32.00;1.00
4787;DHT22;62338;48.832;9.422;2022-08-02T12:44:57;33.20;1.00
4787;DHT22;62338;48.832;9.422;2022-08-02T12:47:01;34.10;1.00
4787;DHT22;62338;48.832;9.422;2022-08-02T12:49:15;35.00;1.00
4787;DHT22;62338;48.832;9.422;2022-08-02T12:51:26;35.60;1.00
4787;DHT22;62338;48.832;9.422;2022-08-02T12:53:55;36.40;1.00
4787;DHT22;62338;48.832;9.422;2022-08-02T12:56:11;36.90;1.00
4787;DHT22;62338;48.832;9.422;2022-08-02T12:58:12;37.30;1.00
4787;DHT22;62338;48.832;9.422;2022-08-02T13:00:26;37.50;1.00
4787;DHT22;62338;48.832;9.422;2022-08-02T13:02:29;37.50;1.00
4787;DHT22;62338;48.832;9.422;2022-08-02T13:04:31;37.00;1.00
4787;DHT22;62338;48.832;9.422;2022-08-02T13:06:34;36.30;1.00
4787;DHT22;62338;48.832;9.422;2022-08-02T13:08:52;36.80;1.00
4787;DHT22;62338;48.832;9.422;2022-08-02T13:10:55;37.60;1.00
4787;DHT22;62338;48.832;9.422;2022-08-02T13:12:56;37.60;1.00
4787;DHT22;62338;48.832;9.422;2022-08-02T13:14:58;38.30;1.00
4787;DHT22;62338;48.832;9.422;2022-08-02T13:17:00;37.90;1.00
4787;DHT22;62338;48.832;9.422;2022-08-02T13:19:01;36.40;1.00
4787;DHT22;62338;48.832;9.422;2022-08-02T13:21:04;34.90;1.00
4787;DHT22;62338;48.832;9.422;2022-08-02T13:23:07;33.40;1.00
4787;DHT22;62338;48.832;9.422;2022-08-02T13:25:22;32.40;1.00
4787;DHT22;62338;48.832;9.422;2022-08-02T13:27:25;32.40;1.00
4787;DHT22;62338;48.832;9.422;2022-08-02T13:29:27;32.00;1.00
4787;DHT22;62338;48.832;9.422;2022-08-02T13:31:29;31.90;1.00
4787;DHT22;62338;48.832;9.422;2022-08-02T13:33:37;31.30;1.00
4787;DHT22;62338;48.832;9.422;2022-08-02T13:35:39;30.80;1.00
4787;DHT22;62338;48.832;9.422;2022-08-02T13:37:42;30.50;1.00
4787;DHT22;62338;48.832;9.422;2022-08-02T13:39:45;30.30;1.00
4787;DHT22;62338;48.832;9.422;2022-08-02T13:42:07;30.50;1.00
4787;DHT22;62338;48.832;9.422;2022-08-02T13:44:16;30.60;1.00
4787;DHT22;62338;48.832;9.422;2022-08-02T13:46:18;30.80;1.00
4787;DHT22;62338;48.832;9.422;2022-08-02T13:48:30;30.70;1.00
4787;DHT22;62338;48.832;9.422;2022-08-02T13:50:32;30.60;1.00
4787;DHT22;62338;48.832;9.422;2022-08-02T13:52:34;31.10;1.00
4787;DHT22;62338;48.832;9.422;2022-08-02T13:54:35;31.20;1.00
4787;DHT22;62338;48.832;9.422;2022-08-02T13:56:37;31.10;1.00
4787;DHT22;62338;48.832;9.422;2022-08-02T13:58:39;30.80;1.00
4787;DHT22;62338;48.832;9.422;2022-08-02T14:00:41;30.60;1.00
4787;DHT22;62338;48.832;9.422;2022-08-02T14:02:42;30.50;1.00
4787;DHT22;62338;48.832;9.422;2022-08-02T14:04:44;31.00;1.00
4787;DHT22;62338;48.832;9.422;2022-08-02T14:06:46;31.70;1.00
4787;DHT22;62338;48.832;9.422;2022-08-02T14:08:48;32.40;1.00
4787;DHT22;62338;48.832;9.422;2022-08-02T14:10:50;32.80;1.00
4787;DHT22;62338;48.832;9.422;2022-08-02T14:12:52;33.10;1.00
4787;DHT22;62338;48.832;9.422;2022-08-02T14:14:57;33.30;1.00
4787;DHT22;62338;48.832;9.422;2022-08-02T14:16:59;33.40;1.00
4787;DHT22;62338;48.832;9.422;2022-08-02T14:19:02;33.70;1.00
4787;DHT22;62338;48.832;9.422;2022-08-02T14:21:11;33.50;1.00
4787;DHT22;62338;48.832;9.422;2022-08-02T14:23:13;33.80;1.00
4787;DHT22;62338;48.832;9.422;2022-08-02T14:25:14;34.00;1.00
4787;DHT22;62338;48.832;9.422;2022-08-02T14:27:16;33.90;1.00
4787;DHT22;62338;48.832;9.422;2022-08-02T14:29:18;34.30;1.00
4787;DHT22;62338;48.832;9.422;2022-08-02T14:31:20;34.60;1.00
4787;DHT22;62338;48.832;9.422;2022-08-02T14:33:21;34.50;1.00
4787;DHT22;62338;48.832;9.422;2022-08-02T14:35:23;34.50;1.00
4787;DHT22;62338;48.832;9.422;2022-08-02T14:37:25;34.60;1.00
4787;DHT22;62338;48.832;9.422;2022-08-02T14:39:27;34.00;1.00
4787;DHT22;62338;48.832;9.422;2022-08-02T14:41:44;33.50;1.00
4787;DHT22;62338;48.832;9.422;2022-08-02T14:44:01;33.70;1.00
4787;DHT22;62338;48.832;9.422;2022-08-02T14:46:06;34.40;1.00
4787;DHT22;62338;48.832;9.422;2022-08-02T14:48:10;34.90;1.00
4787;DHT22;62338;48.832;9.422;2022-08-02T14:50:12;35.50;1.00
4787;DHT22;62338;48.832;9.422;2022-08-02T14:52:15;35.50;1.00
4787;DHT22;62338;48.832;9.422;2022-08-02T14:54:17;35.60;1.00
4787;DHT22;62338;48.832;9.422;2022-08-02T14:56:19;35.40;1.00
4787;DHT22;62338;48.832;9.422;2022-08-02T14:58:21;35.50;1.00
4787;DHT22;62338;48.832;9.422;2022-08-02T15:00:22;35.30;1.00
4787;DHT22;62338;48.832;9.422;2022-08-02T15:02:25;35.40;1.00
4787;DHT22;62338;48.832;9.422;2022-08-02T15:04:27;35.80;1.00
4787;DHT22;62338;48.832;9.422;2022-08-02T15:06:37;35.10;1.00
4787;DHT22;62338;48.832;9.422;2022-08-02T15:08:39;34.70;1.00
4787;DHT22;62338;48.832;9.422;2022-08-02T15:10:41;34.40;1.00
4787;DHT22;62338;48.832;9.422;2022-08-02T15:12:43;33.60;1.00
4787;DHT22;62338;48.832;9.422;2022-08-02T15:14:44;33.60;1.00
4787;DHT22;62338;48.832;9.422;2022-08-02T15:16:47;33.90;1.00
4787;DHT22;62338;48.832;9.422;2022-08-02T15:18:58;34.20;1.00
4787;DHT22;62338;48.832;9.422;2022-08-02T15:21:00;33.90;1.00
4787;DHT22;62338;48.832;9.422;2022-08-02T15:23:09;33.70;1.00
4787;DHT22;62338;48.832;9.422;2022-08-02T15:25:13;34.00;1.00
4787;DHT22;62338;48.832;9.422;2022-08-02T15:27:15;33.70;1.00
4787;DHT22;62338;48.832;9.422;2022-08-02T15:29:17;33.90;1.00
4787;DHT22;62338;48.832;9.422;2022-08-02T15:31:19;34.10;1.00
4787;DHT22;62338;48.832;9.422;2022-08-02T15:33:34;34.10;1.00
4787;DHT22;62338;48.832;9.422;2022-08-02T15:35:35;34.10;1.00
4787;DHT22;62338;48.832;9.422;2022-08-02T15:37:37;33.90;1.00
4787;DHT22;62338;48.832;9.422;2022-08-02T15:39:42;34.00;1.00
4787;DHT22;62338;48.832;9.422;2022-08-02T15:41:44;34.20;1.00
4787;DHT22;62338;48.832;9.422;2022-08-02T15:43:46;34.10;1.00
4787;DHT22;62338;48.832;9.422;2022-08-02T15:46:02;33.80;1.00
4787;DHT22;62338;48.832;9.422;2022-08-02T15:48:04;33.70;1.00
4787;DHT22;62338;48.832;9.422;2022-08-02T15:50:06;33.90;1.00
4787;DHT22;62338;48.832;9.422;2022-08-02T15:52:11;34.30;1.00
4787;DHT22;62338;48.832;9.422;2022-08-02T15:54:13;34.50;1.00
4787;DHT22;62338;48.832;9.422;2022-08-02T15:56:15;34.80;1.00
4787;DHT22;62338;48.832;9.422;2022-08-02T15:58:22;34.70;1.00
4787;DHT22;62338;48.832;9.422;2022-08-02T16:00:24;34.70;1.00
4787;DHT22;62338;48.832;9.422;2022-08-02T16:02:26;34.30;1.00
4787;DHT22;62338;48.832;9.422;2022-08-02T16:04:27;34.20;1.00
4787;DHT22;62338;48.832;9.422;2022-08-02T16:06:29;34.20;1.00
4787;DHT22;62338;48.832;9.422;2022-08-02T16:08:31;33.90;1.00
4787;DHT22;62338;48.832;9.422;2022-08-02T16:10:33;33.90;1.00
4787;DHT22;62338;48.832;9.422;2022-08-02T16:12:34;33.90;1.00
4787;DHT22;62338;48.832;9.422;2022-08-02T16:14:36;34.20;1.00
4787;DHT22;62338;48.832;9.422;2022-08-02T16:16:38;34.40;1.00
4787;DHT22;62338;48.832;9.422;2022-08-02T16:18:40;34.30;1.00
4787;DHT22;62338;48.832;9.422;2022-08-02T16:20:42;34.40;1.00
4787;DHT22;62338;48.832;9.422;2022-08-02T16:22:44;34.30;1.00
4787;DHT22;62338;48.832;9.422;2022-08-02T16:24:45;33.90;1.00
4787;DHT22;62338;48.832;9.422;2022-08-02T16:26:48;34.00;1.00
4787;DHT22;62338;48.832;9.422;2022-08-02T16:28:53;34.10;1.00
4787;DHT22;62338;48.832;9.422;2022-08-02T16:30:55;34.00;1.00
4787;DHT22;62338;48.832;9.422;2022-08-02T16:33:12;33.80;1.00
4787;DHT22;62338;48.832;9.422;2022-08-02T16:35:13;33.80;1.00
4787;DHT22;62338;48.832;9.422;2022-08-02T16:37:15;33.70;1.00
4787;DHT22;62338;48.832;9.422;2022-08-02T16:39:17;33.60;1.00
4787;DHT22;62338;48.832;9.422;2022-08-02T16:41:19;33.30;1.00
4787;DHT22;62338;48.832;9.422;2022-08-02T16:43:21;33.40;1.00
4787;DHT22;62338;48.832;9.422;2022-08-02T16:45:22;33.50;1.00
4787;DHT22;62338;48.832;9.422;2022-08-02T16:47:25;33.60;1.00
4787;DHT22;62338;48.832;9.422;2022-08-02T16:49:46;33.60;1.00
4787;DHT22;62338;48.832;9.422;2022-08-02T16:52:06;33.50;1.00
4787;DHT22;62338;48.832;9.422;2022-08-02T16:54:10;33.80;1.00
4787;DHT22;62338;48.832;9.422;2022-08-02T16:56:11;33.20;1.00
4787;DHT22;62338;48.832;9.422;2022-08-02T16:58:15;33.10;1.00
4787;DHT22;62338;48.832;9.422;2022-08-02T17:00:17;33.10;1.00
4787;DHT22;62338;48.832;9.422;2022-08-02T17:02:19;33.20;1.00
4787;DHT22;62338;48.832;9.422;2022-08-02T17:04:26;33.00;1.00
4787;DHT22;62338;48.832;9.422;2022-08-02T17:06:29;32.90;1.00
4787;DHT22;62338;48.832;9.422;2022-08-02T17:08:30;32.20;1.00
4787;DHT22;62338;48.832;9.422;2022-08-02T17:10:33;31.90;1.00
4787;DHT22;62338;48.832;9.422;2022-08-02T17:12:36;32.00;1.00
4787;DHT22;62338;48.832;9.422;2022-08-02T17:14:38;31.90;1.00
4787;DHT22;62338;48.832;9.422;2022-08-02T17:16:56;32.00;1.00
4787;DHT22;62338;48.832;9.422;2022-08-02T17:18:58;32.20;1.00
4787;DHT22;62338;48.832;9.422;2022-08-02T17:21:00;32.40;1.00
4787;DHT22;62338;48.832;9.422;2022-08-02T17:23:05;32.50;1.00
4787;DHT22;62338;48.832;9.422;2022-08-02T17:25:07;32.40;1.00
4787;DHT22;62338;48.832;9.422;2022-08-02T17:27:11;32.10;1.00
4787;DHT22;62338;48.832;9.422;2022-08-02T17:29:16;31.80;1.00
4787;DHT22;62338;48.832;9.422;2022-08-02T17:31:18;31.50;1.00
4787;DHT22;62338;48.832;9.422;2022-08-02T17:33:30;31.00;1.00
4787;DHT22;62338;48.832;9.422;2022-08-02T17:35:32;30.70;1.00
4787;DHT22;62338;48.832;9.422;2022-08-02T17:37:53;30.10;1.00
4787;DHT22;62338;48.832;9.422;2022-08-02T17:40:01;29.50;1.00
4787;DHT22;62338;48.832;9.422;2022-08-02T17:42:05;28.80;1.00
4787;DHT22;62338;48.832;9.422;2022-08-02T17:44:07;28.50;1.00
4787;DHT22;62338;48.832;9.422;2022-08-02T17:46:09;28.10;1.00
4787;DHT22;62338;48.832;9.422;2022-08-02T17:48:11;27.70;1.00
4787;DHT22;62338;48.832;9.422;2022-08-02T17:50:33;27.40;1.00
4787;DHT22;62338;48.832;9.422;2022-08-02T17:52:35;27.10;1.00
4787;DHT22;62338;48.832;9.422;2022-08-02T17:54:53;26.90;1.00
4787;DHT22;62338;48.832;9.422;2022-08-02T17:56:55;26.60;1.00
4787;DHT22;62338;48.832;9.422;2022-08-02T18:01:21;26.20;1.00
4787;DHT22;62338;48.832;9.422;2022-08-02T18:03:24;26.00;1.00
4787;DHT22;62338;48.832;9.422;2022-08-02T18:05:26;25.90;1.00
4787;DHT22;62338;48.832;9.422;2022-08-02T18:07:42;25.80;1.00
4787;DHT22;62338;48.832;9.422;2022-08-02T18:09:53;25.60;1.00
4787;DHT22;62338;48.832;9.422;2022-08-02T18:11:56;25.50;1.00
4787;DHT22;62338;48.832;9.422;2022-08-02T18:13:58;25.30;1.00
4787;DHT22;62338;48.832;9.422;2022-08-02T18:16:01;25.20;1.00
4787;DHT22;62338;48.832;9.422;2022-08-02T18:18:04;25.10;1.00
4787;DHT22;62338;48.832;9.422;2022-08-02T18:20:07;25.00;1.00
4787;DHT22;62338;48.832;9.422;2022-08-02T18:22:11;24.90;1.00
4787;DHT22;62338;48.832;9.422;2022-08-02T18:24:14;24.80;1.00
4787;DHT22;62338;48.832;9.422;2022-08-02T18:26:17;24.70;1.00
4787;DHT22;62338;48.832;9.422;2022-08-02T18:28:21;24.60;1.00